sensor_id;sensor_type;location;lat;lon;timestamp;temperature;humidity
16160;DHT22;8185;57.818;15.224;2023-01-28T00:01:28;-3.60;99.90
16160;DHT22;8185;57.818;15.224;2023-01-28T00:03:55;-3.60;99.90
16160;DHT22;8185;57.818;15.224;2023-01-28T00:06:23;-3.50;99.90
16160;DHT22;8185;57.818;15.224;2023-01-28T00:08:51;-3.60;99.90
16160;DHT22;8185;57.818;15.224;2023-01-28T00:11:19;-3.50;99.90
16160;DHT22;8185;57.818;15.224;2023-01-28T00:13:50;-3.50;99.90
16160;DHT22;8185;57.818;15.224;2023-01-28T00:16:18;-3.50;99.90
16160;DHT22;8185;57.818;15.224;2023-01-28T00:18:47;-3.50;99.90
16160;DHT22;8185;57.818;15.224;2023-01-28T00:21:15;-3.60;99.90
16160;DHT22;8185;57.818;15.224;2023-01-28T00:23:46;-3.60;99.90
16160;DHT22;8185;57.818;15.224;2023-01-28T00:26:15;-3.70;99.90
16160;DHT22;8185;57.818;15.224;2023-01-28T00:28:42;-3.70;99.90
16160;DHT22;8185;57.818;15.224;2023-01-28T00:31:14;-3.60;99.90
16160;DHT22;8185;57.818;15.224;2023-01-28T00:33:42;-3.60;99.90
16160;DHT22;8185;57.818;15.224;2023-01-28T00:36:10;-3.70;99.90
16160;DHT22;8185;57.818;15.224;2023-01-28T00:38:38;-3.70;99.90
16160;DHT22;8185;57.818;15.224;2023-01-28T00:41:07;-3.70;99.90
16160;DHT22;8185;57.818;15.224;2023-01-28T00:43:37;-3.80;99.90
16160;DHT22;8185;57.818;15.224;2023-01-28T00:46:05;-3.70;99.90
16160;DHT22;8185;57.818;15.224;2023-01-28T00:48:33;-3.80;99.90
16160;DHT22;8185;57.818;15.224;2023-01-28T00:51:01;-3.80;99.90
16160;DHT22;8185;57.818;15.224;2023-01-28T00:53:29;-3.80;99.90
16160;DHT22;8185;57.818;15.224;2023-01-28T00:55:56;-3.70;99.90
16160;DHT22;8185;57.818;15.224;2023-01-28T00:58:25;-3.60;99.90
16160;DHT22;8185;57.818;15.224;2023-01-28T01:00:54;-3.50;99.90
16160;DHT22;8185;57.818;15.224;2023-01-28T01:03:21;-3.60;99.90
16160;DHT22;8185;57.818;15.224;2023-01-28T01:05:48;-3.60;99.90
16160;DHT22;8185;57.818;15.224;2023-01-28T01:08:16;-3.40;99.90
16160;DHT22;8185;57.818;15.224;2023-01-28T01:10:43;-3.40;99.90
16160;DHT22;8185;57.818;15.224;2023-01-28T01:13:11;-3.40;99.90
16160;DHT22;8185;57.818;15.224;2023-01-28T01:15:38;-3.30;99.90
16160;DHT22;8185;57.818;15.224;2023-01-28T01:18:07;-3.30;99.90
16160;DHT22;8185;57.818;15.224;2023-01-28T01:20:34;-3.40;99.90
16160;DHT22;8185;57.818;15.224;2023-01-28T01:23:04;-3.40;99.90
16160;DHT22;8185;57.818;15.224;2023-01-28T01:25:32;-3.50;99.90
16160;DHT22;8185;57.818;15.224;2023-01-28T01:27:59;-3.60;99.90
16160;DHT22;8185;57.818;15.224;2023-01-28T01:30:26;-3.60;99.90
16160;DHT22;8185;57.818;15.224;2023-01-28T01:32:54;-3.70;99.90
16160;DHT22;8185;57.818;15.224;2023-01-28T01:35:23;-3.70;99.90
16160;DHT22;8185;57.818;15.224;2023-01-28T01:37:50;-3.70;99.90
16160;DHT22;8185;57.818;15.224;2023-01-28T01:40:18;-3.70;99.90
16160;DHT22;8185;57.818;15.224;2023-01-28T01:42:45;-3.70;99.90
16160;DHT22;8185;57.818;15.224;2023-01-28T01:45:13;-3.70;99.90
16160;DHT22;8185;57.818;15.224;2023-01-28T01:47:45;-3.80;99.90
16160;DHT22;8185;57.818;15.224;2023-01-28T01:50:22;-3.90;99.90
16160;DHT22;8185;57.818;15.224;2023-01-28T01:52:55;-3.90;99.90
16160;DHT22;8185;57.818;15.224;2023-01-28T01:55:25;-4.00;99.90
16160;DHT22;8185;57.818;15.224;2023-01-28T01:57:56;-4.10;99.90
16160;DHT22;8185;57.818;15.224;2023-01-28T02:00:24;-4.10;99.90
16160;DHT22;8185;57.818;15.224;2023-01-28T02:02:52;-4.20;99.90
16160;DHT22;8185;57.818;15.224;2023-01-28T02:05:21;-4.20;99.90
16160;DHT22;8185;57.818;15.224;2023-01-28T02:07:53;-4.10;99.90
16160;DHT22;8185;57.818;15.224;2023-01-28T02:10:42;-4.10;99.90
16160;DHT22;8185;57.818;15.224;2023-01-28T02:13:10;-4.00;99.90
16160;DHT22;8185;57.818;15.224;2023-01-28T02:15:38;-4.00;99.90
16160;DHT22;8185;57.818;15.224;2023-01-28T02:18:05;-4.00;99.90
16160;DHT22;8185;57.818;15.224;2023-01-28T02:20:43;-3.90;99.90
16160;DHT22;8185;57.818;15.224;2023-01-28T02:29:28;-3.90;99.90
16160;DHT22;8185;57.818;15.224;2023-01-28T02:32:02;-3.90;99.90
16160;DHT22;8185;57.818;15.224;2023-01-28T02:34:34;-3.80;99.90
16160;DHT22;8185;57.818;15.224;2023-01-28T02:37:08;-3.80;99.90
16160;DHT22;8185;57.818;15.224;2023-01-28T02:39:43;-3.80;99.90
16160;DHT22;8185;57.818;15.224;2023-01-28T02:42:15;-3.70;99.90
16160;DHT22;8185;57.818;15.224;2023-01-28T02:44:45;-3.70;99.90
16160;DHT22;8185;57.818;15.224;2023-01-28T02:47:14;-3.80;99.90
16160;DHT22;8185;57.818;15.224;2023-01-28T02:50:03;-3.70;99.90
16160;DHT22;8185;57.818;15.224;2023-01-28T02:52:46;-3.80;99.90
16160;DHT22;8185;57.818;15.224;2023-01-28T02:55:38;-3.80;99.90
16160;DHT22;8185;57.818;15.224;2023-01-28T02:58:11;-3.80;99.90
16160;DHT22;8185;57.818;15.224;2023-01-28T03:00:49;-3.90;99.90
16160;DHT22;8185;57.818;15.224;2023-01-28T03:03:28;-4.00;99.90
16160;DHT22;8185;57.818;15.224;2023-01-28T03:06:01;-4.00;99.90
16160;DHT22;8185;57.818;15.224;2023-01-28T03:08:37;-4.10;99.90
16160;DHT22;8185;57.818;15.224;2023-01-28T03:11:23;-4.10;99.90
16160;DHT22;8185;57.818;15.224;2023-01-28T03:14:10;-4.20;99.90
16160;DHT22;8185;57.818;15.224;2023-01-28T03:16:59;-4.10;99.90
16160;DHT22;8185;57.818;15.224;2023-01-28T03:19:44;-4.10;99.90
16160;DHT22;8185;57.818;15.224;2023-01-28T03:22:32;-4.10;99.90
16160;DHT22;8185;57.818;15.224;2023-01-28T03:25:20;-4.00;99.90
16160;DHT22;8185;57.818;15.224;2023-01-28T03:28:09;-4.00;99.90
16160;DHT22;8185;57.818;15.224;2023-01-28T03:30:59;-4.00;99.90
16160;DHT22;8185;57.818;15.224;2023-01-28T03:33:47;-4.00;99.90
16160;DHT22;8185;57.818;15.224;2023-01-28T03:36:33;-4.10;99.90
16160;DHT22;8185;57.818;15.224;2023-01-28T03:39:22;-4.10;99.90
16160;DHT22;8185;57.818;15.224;2023-01-28T03:42:02;-4.00;99.90
16160;DHT22;8185;57.818;15.224;2023-01-28T03:44:30;-4.10;99.90
16160;DHT22;8185;57.818;15.224;2023-01-28T03:47:17;-4.10;99.90
16160;DHT22;8185;57.818;15.224;2023-01-28T03:49:47;-4.10;99.90
16160;DHT22;8185;57.818;15.224;2023-01-28T03:52:16;-4.00;99.90
16160;DHT22;8185;57.818;15.224;2023-01-28T03:54:43;-3.70;99.90
16160;DHT22;8185;57.818;15.224;2023-01-28T03:57:13;-3.60;99.90
16160;DHT22;8185;57.818;15.224;2023-01-28T03:59:41;-3.50;99.90
16160;DHT22;8185;57.818;15.224;2023-01-28T04:02:09;-3.40;99.90
16160;DHT22;8185;57.818;15.224;2023-01-28T04:04:37;-3.40;99.90
16160;DHT22;8185;57.818;15.224;2023-01-28T04:07:07;-3.30;99.90
16160;DHT22;8185;57.818;15.224;2023-01-28T04:09:35;-3.30;99.90
16160;DHT22;8185;57.818;15.224;2023-01-28T04:12:03;-3.40;99.90
16160;DHT22;8185;57.818;15.224;2023-01-28T04:14:31;-3.50;99.90
16160;DHT22;8185;57.818;15.224;2023-01-28T04:16:58;-3.50;99.90
16160;DHT22;8185;57.818;15.224;2023-01-28T04:19:26;-3.60;99.90
16160;DHT22;8185;57.818;15.224;2023-01-28T04:21:56;-3.50;99.90
16160;DHT22;8185;57.818;15.224;2023-01-28T04:24:25;-3.60;99.90
16160;DHT22;8185;57.818;15.224;2023-01-28T04:26:52;-3.60;99.90
16160;DHT22;8185;57.818;15.224;2023-01-28T04:29:19;-3.60;99.90
16160;DHT22;8185;57.818;15.224;2023-01-28T04:31:47;-3.60;99.90
16160;DHT22;8185;57.818;15.224;2023-01-28T04:34:14;-3.60;99.90
16160;DHT22;8185;57.818;15.224;2023-01-28T04:36:42;-3.60;99.90
16160;DHT22;8185;57.818;15.224;2023-01-28T04:39:09;-3.60;99.90
16160;DHT22;8185;57.818;15.224;2023-01-28T04:41:38;-3.50;99.90
16160;DHT22;8185;57.818;15.224;2023-01-28T04:44:05;-3.50;99.90
16160;DHT22;8185;57.818;15.224;2023-01-28T04:46:33;-3.30;99.90
16160;DHT22;8185;57.818;15.224;2023-01-28T04:49:00;-3.30;99.90
16160;DHT22;8185;57.818;15.224;2023-01-28T04:51:28;-3.20;99.90
16160;DHT22;8185;57.818;15.224;2023-01-28T04:53:56;-3.10;99.90
16160;DHT22;8185;57.818;15.224;2023-01-28T04:56:23;-3.00;99.90
16160;DHT22;8185;57.818;15.224;2023-01-28T04:58:52;-2.80;99.90
16160;DHT22;8185;57.818;15.224;2023-01-28T05:01:19;-2.70;99.90
16160;DHT22;8185;57.818;15.224;2023-01-28T05:03:46;-2.60;99.90
16160;DHT22;8185;57.818;15.224;2023-01-28T05:06:14;-2.40;99.90
16160;DHT22;8185;57.818;15.224;2023-01-28T05:08:41;-2.30;99.90
16160;DHT22;8185;57.818;15.224;2023-01-28T05:11:10;-2.20;99.90
16160;DHT22;8185;57.818;15.224;2023-01-28T05:13:38;-2.10;99.90
16160;DHT22;8185;57.818;15.224;2023-01-28T05:16:07;-2.00;99.90
16160;DHT22;8185;57.818;15.224;2023-01-28T05:18:34;-1.90;99.90
16160;DHT22;8185;57.818;15.224;2023-01-28T05:21:02;-1.90;99.90
16160;DHT22;8185;57.818;15.224;2023-01-28T05:23:29;-1.80;99.90
16160;DHT22;8185;57.818;15.224;2023-01-28T05:25:56;-1.70;99.90
16160;DHT22;8185;57.818;15.224;2023-01-28T05:28:23;-1.70;99.90
16160;DHT22;8185;57.818;15.224;2023-01-28T05:30:51;-1.60;99.90
16160;DHT22;8185;57.818;15.224;2023-01-28T05:33:20;-1.50;99.90
16160;DHT22;8185;57.818;15.224;2023-01-28T05:35:47;-1.60;99.90
16160;DHT22;8185;57.818;15.224;2023-01-28T05:38:14;-1.60;99.90
16160;DHT22;8185;57.818;15.224;2023-01-28T05:40:42;-1.50;99.90
16160;DHT22;8185;57.818;15.224;2023-01-28T05:43:09;-1.40;99.90
16160;DHT22;8185;57.818;15.224;2023-01-28T05:45:36;-1.40;99.90
16160;DHT22;8185;57.818;15.224;2023-01-28T05:48:04;-1.40;99.90
16160;DHT22;8185;57.818;15.224;2023-01-28T05:50:33;-1.40;99.90
16160;DHT22;8185;57.818;15.224;2023-01-28T05:53:01;-1.40;99.90
16160;DHT22;8185;57.818;15.224;2023-01-28T05:55:30;-1.30;99.90
16160;DHT22;8185;57.818;15.224;2023-01-28T05:57:58;-1.30;99.90
16160;DHT22;8185;57.818;15.224;2023-01-28T06:00:25;-1.30;99.90
16160;DHT22;8185;57.818;15.224;2023-01-28T06:02:53;-1.30;99.90
16160;DHT22;8185;57.818;15.224;2023-01-28T06:05:20;-1.30;99.90
16160;DHT22;8185;57.818;15.224;2023-01-28T06:07:49;-1.30;99.90
16160;DHT22;8185;57.818;15.224;2023-01-28T06:10:17;-1.20;99.90
16160;DHT22;8185;57.818;15.224;2023-01-28T06:12:44;-1.20;99.90
16160;DHT22;8185;57.818;15.224;2023-01-28T06:15:11;-1.20;99.90
16160;DHT22;8185;57.818;15.224;2023-01-28T06:17:39;-1.20;99.90
16160;DHT22;8185;57.818;15.224;2023-01-28T06:20:07;-1.20;99.90
16160;DHT22;8185;57.818;15.224;2023-01-28T06:22:34;-1.10;99.90
16160;DHT22;8185;57.818;15.224;2023-01-28T06:25:04;-1.00;99.90
16160;DHT22;8185;57.818;15.224;2023-01-28T06:27:31;-1.00;99.90
16160;DHT22;8185;57.818;15.224;2023-01-28T06:29:58;-1.00;99.90
16160;DHT22;8185;57.818;15.224;2023-01-28T06:32:26;-0.90;99.90
16160;DHT22;8185;57.818;15.224;2023-01-28T06:34:54;-0.90;99.90
16160;DHT22;8185;57.818;15.224;2023-01-28T06:37:22;-0.90;99.90
16160;DHT22;8185;57.818;15.224;2023-01-28T06:39:49;-0.90;99.90
16160;DHT22;8185;57.818;15.224;2023-01-28T06:42:18;-0.80;99.90
16160;DHT22;8185;57.818;15.224;2023-01-28T06:44:46;-0.70;99.90
16160;DHT22;8185;57.818;15.224;2023-01-28T06:47:13;-0.70;99.90
16160;DHT22;8185;57.818;15.224;2023-01-28T06:49:40;-0.70;99.90
16160;DHT22;8185;57.818;15.224;2023-01-28T06:52:08;-0.60;99.90
16160;DHT22;8185;57.818;15.224;2023-01-28T06:54:35;-0.60;99.90
16160;DHT22;8185;57.818;15.224;2023-01-28T06:57:03;-0.60;99.90
16160;DHT22;8185;57.818;15.224;2023-01-28T06:59:31;-0.50;99.90
16160;DHT22;8185;57.818;15.224;2023-01-28T07:01:59;-0.40;99.90
16160;DHT22;8185;57.818;15.224;2023-01-28T07:04:26;-0.40;99.90
16160;DHT22;8185;57.818;15.224;2023-01-28T07:06:54;-0.40;99.90
16160;DHT22;8185;57.818;15.224;2023-01-28T07:09:21;-0.30;99.90
16160;DHT22;8185;57.818;15.224;2023-01-28T07:11:49;-0.30;99.90
16160;DHT22;8185;57.818;15.224;2023-01-28T07:14:16;-0.20;99.90
16160;DHT22;8185;57.818;15.224;2023-01-28T07:16:45;-0.20;99.90
16160;DHT22;8185;57.818;15.224;2023-01-28T07:19:12;-0.10;99.90
16160;DHT22;8185;57.818;15.224;2023-01-28T07:21:39;-0.10;99.90
16160;DHT22;8185;57.818;15.224;2023-01-28T07:24:07;-0.20;99.90
16160;DHT22;8185;57.818;15.224;2023-01-28T07:26:34;-0.10;99.90
16160;DHT22;8185;57.818;15.224;2023-01-28T07:29:01;-0.10;99.90
16160;DHT22;8185;57.818;15.224;2023-01-28T07:31:29;0.00;99.90
16160;DHT22;8185;57.818;15.224;2023-01-28T07:33:58;0.00;99.90
16160;DHT22;8185;57.818;15.224;2023-01-28T07:36:25;0.10;99.90
16160;DHT22;8185;57.818;15.224;2023-01-28T07:38:52;0.10;99.90
16160;DHT22;8185;57.818;15.224;2023-01-28T07:41:20;0.20;99.90
16160;DHT22;8185;57.818;15.224;2023-01-28T07:43:47;0.20;99.90
16160;DHT22;8185;57.818;15.224;2023-01-28T07:46:14;0.30;99.90
16160;DHT22;8185;57.818;15.224;2023-01-28T07:48:41;0.30;99.90
16160;DHT22;8185;57.818;15.224;2023-01-28T07:51:10;1.30;99.90
16160;DHT22;8185;57.818;15.224;2023-01-28T07:53:38;0.40;99.90
16160;DHT22;8185;57.818;15.224;2023-01-28T07:56:06;0.40;99.90
16160;DHT22;8185;57.818;15.224;2023-01-28T07:58:33;0.40;99.90
16160;DHT22;8185;57.818;15.224;2023-01-28T08:01:01;0.50;99.90
16160;DHT22;8185;57.818;15.224;2023-01-28T08:03:28;0.50;99.90
16160;DHT22;8185;57.818;15.224;2023-01-28T08:05:56;0.50;99.90
16160;DHT22;8185;57.818;15.224;2023-01-28T08:08:25;0.50;99.90
16160;DHT22;8185;57.818;15.224;2023-01-28T08:10:53;0.50;99.90
16160;DHT22;8185;57.818;15.224;2023-01-28T08:13:20;0.50;99.90
16160;DHT22;8185;57.818;15.224;2023-01-28T08:15:47;0.50;99.90
16160;DHT22;8185;57.818;15.224;2023-01-28T08:18:16;0.50;99.90
16160;DHT22;8185;57.818;15.224;2023-01-28T08:20:43;0.50;99.90
16160;DHT22;8185;57.818;15.224;2023-01-28T08:23:14;0.50;99.90
16160;DHT22;8185;57.818;15.224;2023-01-28T08:25:43;0.50;99.90
16160;DHT22;8185;57.818;15.224;2023-01-28T08:28:10;0.50;99.90
16160;DHT22;8185;57.818;15.224;2023-01-28T08:30:38;0.50;99.90
16160;DHT22;8185;57.818;15.224;2023-01-28T08:33:07;0.50;99.90
16160;DHT22;8185;57.818;15.224;2023-01-28T08:35:35;0.60;99.90
16160;DHT22;8185;57.818;15.224;2023-01-28T08:38:03;0.50;99.90
16160;DHT22;8185;57.818;15.224;2023-01-28T08:40:31;0.50;99.90
16160;DHT22;8185;57.818;15.224;2023-01-28T08:43:00;0.50;99.90
16160;DHT22;8185;57.818;15.224;2023-01-28T08:45:27;0.50;99.90
16160;DHT22;8185;57.818;15.224;2023-01-28T08:47:56;0.60;99.90
16160;DHT22;8185;57.818;15.224;2023-01-28T08:50:25;0.50;99.90
16160;DHT22;8185;57.818;15.224;2023-01-28T08:52:58;0.50;99.90
16160;DHT22;8185;57.818;15.224;2023-01-28T08:55:26;0.50;99.90
16160;DHT22;8185;57.818;15.224;2023-01-28T08:57:54;0.50;99.90
16160;DHT22;8185;57.818;15.224;2023-01-28T09:00:23;0.60;99.90
16160;DHT22;8185;57.818;15.224;2023-01-28T09:02:51;0.60;99.90
16160;DHT22;8185;57.818;15.224;2023-01-28T09:05:19;0.60;99.90
16160;DHT22;8185;57.818;15.224;2023-01-28T09:07:46;0.60;99.90
16160;DHT22;8185;57.818;15.224;2023-01-28T09:10:14;0.60;99.90
16160;DHT22;8185;57.818;15.224;2023-01-28T09:12:42;0.60;99.90
16160;DHT22;8185;57.818;15.224;2023-01-28T09:15:10;0.60;99.90
16160;DHT22;8185;57.818;15.224;2023-01-28T09:17:39;0.60;99.90
16160;DHT22;8185;57.818;15.224;2023-01-28T09:20:08;0.70;99.90
16160;DHT22;8185;57.818;15.224;2023-01-28T09:22:36;0.70;99.90
16160;DHT22;8185;57.818;15.224;2023-01-28T09:25:04;0.70;99.90
16160;DHT22;8185;57.818;15.224;2023-01-28T09:27:32;0.80;99.90
16160;DHT22;8185;57.818;15.224;2023-01-28T09:30:00;0.80;99.90
16160;DHT22;8185;57.818;15.224;2023-01-28T09:32:27;0.90;99.90
16160;DHT22;8185;57.818;15.224;2023-01-28T09:34:57;0.90;99.90
16160;DHT22;8185;57.818;15.224;2023-01-28T09:37:25;0.90;99.90
16160;DHT22;8185;57.818;15.224;2023-01-28T09:39:52;0.90;99.90
16160;DHT22;8185;57.818;15.224;2023-01-28T09:42:39;0.90;99.90
16160;DHT22;8185;57.818;15.224;2023-01-28T09:45:12;1.00;99.90
16160;DHT22;8185;57.818;15.224;2023-01-28T09:47:45;1.00;99.90
16160;DHT22;8185;57.818;15.224;2023-01-28T09:50:19;1.00;99.90
16160;DHT22;8185;57.818;15.224;2023-01-28T09:52:47;1.10;99.90
16160;DHT22;8185;57.818;15.224;2023-01-28T09:55:18;1.10;99.90
16160;DHT22;8185;57.818;15.224;2023-01-28T09:57:51;1.10;99.90
16160;DHT22;8185;57.818;15.224;2023-01-28T10:00:21;1.10;99.90
16160;DHT22;8185;57.818;15.224;2023-01-28T10:03:12;1.20;99.90
16160;DHT22;8185;57.818;15.224;2023-01-28T10:05:54;1.20;99.90
16160;DHT22;8185;57.818;15.224;2023-01-28T10:08:36;1.20;99.90
16160;DHT22;8185;57.818;15.224;2023-01-28T10:11:12;1.30;99.90
16160;DHT22;8185;57.818;15.224;2023-01-28T10:13:52;1.30;99.90
16160;DHT22;8185;57.818;15.224;2023-01-28T10:16:29;1.30;99.90
16160;DHT22;8185;57.818;15.224;2023-01-28T10:19:01;1.30;99.90
16160;DHT22;8185;57.818;15.224;2023-01-28T10:21:36;1.30;99.90
16160;DHT22;8185;57.818;15.224;2023-01-28T10:24:09;1.30;99.90
16160;DHT22;8185;57.818;15.224;2023-01-28T10:26:41;1.30;99.90
16160;DHT22;8185;57.818;15.224;2023-01-28T10:29:17;1.40;99.90
16160;DHT22;8185;57.818;15.224;2023-01-28T10:31:51;1.40;99.90
16160;DHT22;8185;57.818;15.224;2023-01-28T10:34:19;1.40;99.90
16160;DHT22;8185;57.818;15.224;2023-01-28T10:36:48;1.40;99.90
16160;DHT22;8185;57.818;15.224;2023-01-28T10:39:18;1.40;99.90
16160;DHT22;8185;57.818;15.224;2023-01-28T10:41:46;1.40;99.90
16160;DHT22;8185;57.818;15.224;2023-01-28T10:44:17;1.40;99.90
16160;DHT22;8185;57.818;15.224;2023-01-28T10:46:47;1.50;99.90
16160;DHT22;8185;57.818;15.224;2023-01-28T10:49:17;1.50;99.90
16160;DHT22;8185;57.818;15.224;2023-01-28T10:51:45;1.50;99.90
16160;DHT22;8185;57.818;15.224;2023-01-28T10:54:20;1.50;99.90
16160;DHT22;8185;57.818;15.224;2023-01-28T10:56:51;1.50;99.90
16160;DHT22;8185;57.818;15.224;2023-01-28T10:59:22;1.50;99.90
16160;DHT22;8185;57.818;15.224;2023-01-28T11:01:53;1.60;99.90
16160;DHT22;8185;57.818;15.224;2023-01-28T11:04:24;1.60;99.90
16160;DHT22;8185;57.818;15.224;2023-01-28T11:06:57;1.60;99.90
16160;DHT22;8185;57.818;15.224;2023-01-28T11:09:28;1.60;99.90
16160;DHT22;8185;57.818;15.224;2023-01-28T11:11:56;1.60;99.90
16160;DHT22;8185;57.818;15.224;2023-01-28T11:14:25;1.60;99.90
16160;DHT22;8185;57.818;15.224;2023-01-28T11:16:55;1.70;99.90
16160;DHT22;8185;57.818;15.224;2023-01-28T11:19:30;1.70;99.90
16160;DHT22;8185;57.818;15.224;2023-01-28T11:21:58;1.70;99.90
16160;DHT22;8185;57.818;15.224;2023-01-28T11:24:30;1.70;99.90
16160;DHT22;8185;57.818;15.224;2023-01-28T11:27:12;1.70;99.90
16160;DHT22;8185;57.818;15.224;2023-01-28T11:29:42;1.70;99.90
16160;DHT22;8185;57.818;15.224;2023-01-28T11:32:17;1.80;99.90
16160;DHT22;8185;57.818;15.224;2023-01-28T11:34:50;1.80;99.90
16160;DHT22;8185;57.818;15.224;2023-01-28T11:37:20;1.90;99.90
16160;DHT22;8185;57.818;15.224;2023-01-28T11:40:00;1.90;99.90
16160;DHT22;8185;57.818;15.224;2023-01-28T11:42:27;1.90;99.90
16160;DHT22;8185;57.818;15.224;2023-01-28T11:44:56;1.90;99.90
16160;DHT22;8185;57.818;15.224;2023-01-28T11:47:46;2.00;99.90
16160;DHT22;8185;57.818;15.224;2023-01-28T11:50:36;2.00;99.90
16160;DHT22;8185;57.818;15.224;2023-01-28T11:53:26;2.00;99.90
16160;DHT22;8185;57.818;15.224;2023-01-28T11:56:14;2.00;99.90
16160;DHT22;8185;57.818;15.224;2023-01-28T11:58:55;2.00;99.90
16160;DHT22;8185;57.818;15.224;2023-01-28T12:01:33;2.00;99.90
16160;DHT22;8185;57.818;15.224;2023-01-28T12:04:19;2.00;99.90
16160;DHT22;8185;57.818;15.224;2023-01-28T12:07:08;2.00;99.90
16160;DHT22;8185;57.818;15.224;2023-01-28T12:09:46;2.00;99.90
16160;DHT22;8185;57.818;15.224;2023-01-28T12:12:36;2.10;99.90
16160;DHT22;8185;57.818;15.224;2023-01-28T12:15:30;2.00;99.90
16160;DHT22;8185;57.818;15.224;2023-01-28T12:18:16;2.10;99.90
16160;DHT22;8185;57.818;15.224;2023-01-28T12:20:51;2.10;99.90
16160;DHT22;8185;57.818;15.224;2023-01-28T12:23:39;2.10;99.90
16160;DHT22;8185;57.818;15.224;2023-01-28T12:26:12;2.10;99.90
16160;DHT22;8185;57.818;15.224;2023-01-28T12:28:56;2.10;99.90
16160;DHT22;8185;57.818;15.224;2023-01-28T12:31:50;2.20;99.90
16160;DHT22;8185;57.818;15.224;2023-01-28T12:34:54;2.20;99.90
16160;DHT22;8185;57.818;15.224;2023-01-28T12:37:34;2.20;99.90
16160;DHT22;8185;57.818;15.224;2023-01-28T12:40:12;2.20;99.90
16160;DHT22;8185;57.818;15.224;2023-01-28T12:42:44;2.20;99.90
16160;DHT22;8185;57.818;15.224;2023-01-28T12:45:19;2.20;99.90
16160;DHT22;8185;57.818;15.224;2023-01-28T12:47:52;2.30;99.90
16160;DHT22;8185;57.818;15.224;2023-01-28T12:50:23;2.30;99.90
16160;DHT22;8185;57.818;15.224;2023-01-28T12:52:56;2.30;99.90
16160;DHT22;8185;57.818;15.224;2023-01-28T12:55:36;2.30;99.90
16160;DHT22;8185;57.818;15.224;2023-01-28T12:58:12;2.30;99.90
16160;DHT22;8185;57.818;15.224;2023-01-28T13:00:47;2.30;99.90
16160;DHT22;8185;57.818;15.224;2023-01-28T13:03:19;2.30;99.90
16160;DHT22;8185;57.818;15.224;2023-01-28T13:05:51;2.30;99.90
16160;DHT22;8185;57.818;15.224;2023-01-28T13:08:22;2.40;99.90
16160;DHT22;8185;57.818;15.224;2023-01-28T13:10:50;2.40;99.90
16160;DHT22;8185;57.818;15.224;2023-01-28T13:13:28;2.50;99.90
16160;DHT22;8185;57.818;15.224;2023-01-28T13:15:58;2.40;99.90
16160;DHT22;8185;57.818;15.224;2023-01-28T13:18:32;2.50;99.90
16160;DHT22;8185;57.818;15.224;2023-01-28T13:21:00;2.50;99.90
16160;DHT22;8185;57.818;15.224;2023-01-28T13:23:37;2.50;99.90
16160;DHT22;8185;57.818;15.224;2023-01-28T13:26:11;2.50;99.90
16160;DHT22;8185;57.818;15.224;2023-01-28T13:28:53;2.50;99.90
16160;DHT22;8185;57.818;15.224;2023-01-28T13:31:38;2.50;99.90
16160;DHT22;8185;57.818;15.224;2023-01-28T13:34:06;2.60;99.90
16160;DHT22;8185;57.818;15.224;2023-01-28T13:36:38;2.60;99.90
16160;DHT22;8185;57.818;15.224;2023-01-28T13:39:17;2.60;99.90
16160;DHT22;8185;57.818;15.224;2023-01-28T13:41:46;2.60;99.90
16160;DHT22;8185;57.818;15.224;2023-01-28T13:44:18;2.60;99.90
16160;DHT22;8185;57.818;15.224;2023-01-28T13:46:48;2.60;99.90
16160;DHT22;8185;57.818;15.224;2023-01-28T13:49:20;2.60;99.90
16160;DHT22;8185;57.818;15.224;2023-01-28T13:51:57;2.60;99.90
16160;DHT22;8185;57.818;15.224;2023-01-28T13:54:26;2.60;99.90
16160;DHT22;8185;57.818;15.224;2023-01-28T13:57:22;2.60;99.90
16160;DHT22;8185;57.818;15.224;2023-01-28T14:00:06;2.60;99.90
16160;DHT22;8185;57.818;15.224;2023-01-28T14:02:59;2.60;99.90
16160;DHT22;8185;57.818;15.224;2023-01-28T14:05:45;2.60;99.90
16160;DHT22;8185;57.818;15.224;2023-01-28T14:08:37;2.60;99.90
16160;DHT22;8185;57.818;15.224;2023-01-28T14:11:30;2.60;99.90
16160;DHT22;8185;57.818;15.224;2023-01-28T14:14:30;2.60;99.90
16160;DHT22;8185;57.818;15.224;2023-01-28T14:17:06;2.60;99.90
16160;DHT22;8185;57.818;15.224;2023-01-28T14:19:41;2.60;99.90
16160;DHT22;8185;57.818;15.224;2023-01-28T14:22:16;2.70;99.90
16160;DHT22;8185;57.818;15.224;2023-01-28T14:24:45;2.70;99.90
16160;DHT22;8185;57.818;15.224;2023-01-28T14:27:16;2.70;99.90
16160;DHT22;8185;57.818;15.224;2023-01-28T14:29:53;2.70;99.90
16160;DHT22;8185;57.818;15.224;2023-01-28T14:32:28;2.70;99.90
16160;DHT22;8185;57.818;15.224;2023-01-28T14:34:59;2.60;99.90
16160;DHT22;8185;57.818;15.224;2023-01-28T14:37:32;2.70;99.90
16160;DHT22;8185;57.818;15.224;2023-01-28T14:40:02;2.60;99.90
16160;DHT22;8185;57.818;15.224;2023-01-28T14:42:35;2.60;99.90
16160;DHT22;8185;57.818;15.224;2023-01-28T14:45:15;2.60;99.90
16160;DHT22;8185;57.818;15.224;2023-01-28T14:48:10;2.60;99.90
16160;DHT22;8185;57.818;15.224;2023-01-28T14:51:01;2.60;99.90
16160;DHT22;8185;57.818;15.224;2023-01-28T14:53:54;2.60;99.90
16160;DHT22;8185;57.818;15.224;2023-01-28T14:56:33;2.60;99.90
16160;DHT22;8185;57.818;15.224;2023-01-28T14:59:14;2.60;99.90
16160;DHT22;8185;57.818;15.224;2023-01-28T15:01:44;2.60;99.90
16160;DHT22;8185;57.818;15.224;2023-01-28T15:04:22;2.60;99.90
16160;DHT22;8185;57.818;15.224;2023-01-28T15:06:51;2.60;99.90
16160;DHT22;8185;57.818;15.224;2023-01-28T15:09:19;2.60;99.90
16160;DHT22;8185;57.818;15.224;2023-01-28T15:11:49;2.50;99.90
16160;DHT22;8185;57.818;15.224;2023-01-28T15:14:24;2.50;99.90
16160;DHT22;8185;57.818;15.224;2023-01-28T15:16:52;2.60;99.90
16160;DHT22;8185;57.818;15.224;2023-01-28T15:19:25;2.60;99.90
16160;DHT22;8185;57.818;15.224;2023-01-28T15:21:56;2.60;99.90
16160;DHT22;8185;57.818;15.224;2023-01-28T15:24:24;2.60;99.90
16160;DHT22;8185;57.818;15.224;2023-01-28T15:26:52;2.60;99.90
16160;DHT22;8185;57.818;15.224;2023-01-28T15:29:23;2.60;99.90
16160;DHT22;8185;57.818;15.224;2023-01-28T15:31:51;2.60;99.90
16160;DHT22;8185;57.818;15.224;2023-01-28T15:34:19;2.60;99.90
16160;DHT22;8185;57.818;15.224;2023-01-28T15:36:48;2.60;99.90
16160;DHT22;8185;57.818;15.224;2023-01-28T15:39:19;2.60;99.90
16160;DHT22;8185;57.818;15.224;2023-01-28T15:41:49;2.60;99.90
16160;DHT22;8185;57.818;15.224;2023-01-28T15:44:20;2.60;99.90
16160;DHT22;8185;57.818;15.224;2023-01-28T15:46:54;2.60;99.90
16160;DHT22;8185;57.818;15.224;2023-01-28T15:49:24;2.60;99.90
16160;DHT22;8185;57.818;15.224;2023-01-28T15:51:52;2.60;99.90
16160;DHT22;8185;57.818;15.224;2023-01-28T15:54:22;2.60;99.90
16160;DHT22;8185;57.818;15.224;2023-01-28T15:56:50;2.60;99.90
16160;DHT22;8185;57.818;15.224;2023-01-28T15:59:23;2.60;99.90
16160;DHT22;8185;57.818;15.224;2023-01-28T16:02:16;2.60;99.90
16160;DHT22;8185;57.818;15.224;2023-01-28T16:04:55;2.60;99.90
16160;DHT22;8185;57.818;15.224;2023-01-28T16:07:23;2.60;99.90
16160;DHT22;8185;57.818;15.224;2023-01-28T16:09:53;2.60;99.90
16160;DHT22;8185;57.818;15.224;2023-01-28T16:12:21;2.60;99.90
16160;DHT22;8185;57.818;15.224;2023-01-28T16:14:54;2.60;99.90
16160;DHT22;8185;57.818;15.224;2023-01-28T16:17:23;2.60;99.90